Terminal Aerodrome Forecast
Issued by NWS Upton, NY

Home | Current Version | Previous Version | Text Only | Print | Product List | Glossary On
Versions: 1 2 3 4 5 6 7 8 9 10 11 12 13 14 15 16 17 18 19 20 21 22 23 24 25 26 27 28 29 30 31
728
FTUS41 KOKX 251544 AAA
TAFEWR
TAF AMD
KEWR 251544Z 2516/2618 VRB03KT P6SM BKN120
     FM251800 VRB03KT P6SM -RA SCT045 BKN120
     FM252000 04008KT P6SM VCSH OVC035
     FM252200 05008KT P6SM OVC025
     FM260100 06008KT P6SM OVC015
     FM260700 06009KT P6SM OVC025
     FM261000 06009KT P6SM SCT025 OVC035=

USA.gov is the U.S. government's official web portal to all federal, state and local government web resources and services.